Herrick Center, Pennsylvania
Current Conditions -  °F | °C
As of 2:54 PM on Friday 28 Nov 2014 (Local Time) from KAVP Reporting Station
Few Clouds Few Clouds  
Wind Chill: 16°   Ceiling: Unl
Heat Index: 28°   Visibility: 10mi
Dew Point: 12°   Wind: 16mph
Humidity: 51%   Direction: 320°NW
Pressure: 30.18"   Gusts: 21mph
Location:  41.74°N, 75.49°W
Report Text: KAVP 281954Z 32014G18KT 10SM FEW047 M02/M11 A3018 RMK AO2 SLP229 T10221111
Loading
Personal Weather Stations






























Interactive Weather Map New forecast layout! Learn more

10-Day Weather Forecast

Advertisements
Track Severe Weather on mobile